createdAt,value
2022-11-28T00:01:45.436Z,12.40
2022-11-28T00:04:13.070Z,12.23
2022-11-28T00:06:49.953Z,14.50
2022-11-28T00:09:19.598Z,13.32
2022-11-28T00:11:48.426Z,13.10
2022-11-28T00:14:16.623Z,13.25
2022-11-28T00:16:43.740Z,14.50
2022-11-28T00:19:12.255Z,13.40
2022-11-28T00:21:39.333Z,13.20
2022-11-28T00:24:09.844Z,13.75
2022-11-28T00:26:40.188Z,13.57
2022-11-28T00:29:07.943Z,14.63
2022-11-28T00:31:42.197Z,15.27
2022-11-28T00:34:10.991Z,15.98
2022-11-28T00:36:37.680Z,15.50
2022-11-28T00:39:04.968Z,13.80
2022-11-28T00:41:33.844Z,15.30
2022-11-28T00:44:00.947Z,15.50
2022-11-28T00:46:28.382Z,15.48
2022-11-28T00:48:55.093Z,15.93
2022-11-28T00:51:24.470Z,15.48
2022-11-28T00:53:52.519Z,14.50
2022-11-28T00:56:25.311Z,17.70
2022-11-28T00:58:52.525Z,16.70
2022-11-28T01:01:25.930Z,14.90
2022-11-28T01:03:54.591Z,16.15
2022-11-28T01:06:26.834Z,14.95
2022-11-28T01:08:54.378Z,15.38
2022-11-28T01:11:21.784Z,16.75
2022-11-28T01:13:48.618Z,17.02
2022-11-28T01:16:15.440Z,15.73
2022-11-28T01:18:42.266Z,15.55
2022-11-28T01:21:09.292Z,15.25
2022-11-28T01:23:36.760Z,14.82
2022-11-28T01:26:05.189Z,17.10
2022-11-28T01:28:31.888Z,17.10
2022-11-28T01:31:04.764Z,15.63
2022-11-28T01:33:31.466Z,15.77
2022-11-28T01:35:59.019Z,15.55
2022-11-28T01:38:26.089Z,16.30
2022-11-28T01:40:52.905Z,15.73
2022-11-28T01:43:20.601Z,17.25
2022-11-28T01:45:47.304Z,15.45
2022-11-28T01:48:25.510Z,15.10
2022-11-28T01:50:55.687Z,14.98
2022-11-28T01:53:22.790Z,15.30
2022-11-28T01:55:59.263Z,17.73
2022-11-28T01:58:27.209Z,15.88
2022-11-28T02:00:54.089Z,16.60
2022-11-28T02:03:29.756Z,16.83
2022-11-28T02:05:56.902Z,15.75
2022-11-28T02:08:25.421Z,16.13
2022-11-28T02:11:39.991Z,17.55
2022-11-28T02:14:28.193Z,14.98
2022-11-28T02:17:15.997Z,17.40
2022-11-28T02:20:28.044Z,16.98
2022-11-28T02:23:17.990Z,15.93
2022-11-28T02:25:56.545Z,17.08
2022-11-28T02:28:41.645Z,15.43
2022-11-28T02:31:41.147Z,16.75
2022-11-28T02:34:19.374Z,17.95
2022-11-28T02:36:52.972Z,16.08
2022-11-28T02:39:45.158Z,17.27
2022-11-28T02:42:23.677Z,17.20
2022-11-28T02:45:00.275Z,17.45
2022-11-28T02:47:36.234Z,19.23
2022-11-28T02:50:19.971Z,17.10
2022-11-28T02:52:50.897Z,18.10
2022-11-28T02:55:17.986Z,18.90
2022-11-28T02:57:51.372Z,16.38
2022-11-28T03:00:36.314Z,17.27
2022-11-28T03:03:21.867Z,17.48
2022-11-28T03:06:26.231Z,17.80
2022-11-28T03:09:09.683Z,18.08
2022-11-28T03:12:03.872Z,18.35
2022-11-28T03:14:51.262Z,17.20
2022-11-28T03:17:27.327Z,16.73
2022-11-28T03:20:03.731Z,16.50
2022-11-28T03:22:30.286Z,17.33
2022-11-28T03:25:31.669Z,17.50
2022-11-28T03:28:07.384Z,21.27
2022-11-28T03:30:40.302Z,17.98
2022-11-28T03:33:08.485Z,16.50
2022-11-28T03:35:41.383Z,16.48
2022-11-28T03:38:16.775Z,15.40
2022-11-28T03:40:49.153Z,14.10
2022-11-28T03:43:34.683Z,15.95
2022-11-28T03:46:08.235Z,15.70
2022-11-28T03:48:42.692Z,15.63
2022-11-28T03:51:18.458Z,15.68
2022-11-28T03:53:59.648Z,16.20
2022-11-28T03:56:36.812Z,15.88
2022-11-28T03:59:25.444Z,15.60
2022-11-28T04:02:03.768Z,14.82
2022-11-28T04:04:42.097Z,15.38
2022-11-28T04:07:41.634Z,15.15
2022-11-28T04:10:22.472Z,14.93
2022-11-28T04:12:59.364Z,14.80
2022-11-28T04:15:32.073Z,14.95
2022-11-28T04:18:23.980Z,14.95
2022-11-28T04:21:02.748Z,15.20
2022-11-28T04:23:31.678Z,16.42
2022-11-28T04:26:30.450Z,14.93
2022-11-28T04:29:00.194Z,14.43
2022-11-28T04:31:27.420Z,15.27
2022-11-28T04:33:59.611Z,15.05
2022-11-28T04:36:28.599Z,15.65
2022-11-28T04:38:58.143Z,14.93
2022-11-28T04:41:39.250Z,16.33
2022-11-28T04:44:33.498Z,15.90
2022-11-28T04:47:00.236Z,16.35
2022-11-28T04:49:28.495Z,15.57
2022-11-28T04:52:09.781Z,16.25
2022-11-28T04:54:56.236Z,15.82
2022-11-28T04:57:35.770Z,15.23
2022-11-28T05:00:07.328Z,14.50
2022-11-28T05:02:35.752Z,14.20
2022-11-28T05:05:09.398Z,14.68
2022-11-28T05:07:36.079Z,14.00
2022-11-28T05:10:02.818Z,13.90
2022-11-28T05:12:29.480Z,13.85
2022-11-28T05:14:56.117Z,14.85
2022-11-28T05:17:22.727Z,15.85
2022-11-28T05:19:49.400Z,15.40
2022-11-28T05:22:16.048Z,15.57
2022-11-28T05:24:42.859Z,15.30
2022-11-28T05:27:11.383Z,15.20
2022-11-28T05:29:38.162Z,15.18
2022-11-28T05:32:04.971Z,13.80
2022-11-28T05:34:31.621Z,13.23
2022-11-28T05:36:58.503Z,13.23
2022-11-28T05:39:25.787Z,14.43
2022-11-28T05:41:54.281Z,12.60
2022-11-28T05:44:26.611Z,12.93
2022-11-28T05:46:53.574Z,14.40
2022-11-28T05:49:21.619Z,14.20
2022-11-28T05:51:48.867Z,14.90
2022-11-28T05:54:15.771Z,14.15
2022-11-28T05:56:42.719Z,15.68
2022-11-28T05:59:09.444Z,15.20
2022-11-28T06:01:36.093Z,13.90
2022-11-28T06:04:02.765Z,14.73
2022-11-28T06:06:32.338Z,15.25
2022-11-28T06:08:59.576Z,14.50
2022-11-28T06:11:29.550Z,15.85
2022-11-28T06:13:56.246Z,14.05
2022-11-28T06:16:25.850Z,14.30
2022-11-28T06:18:54.602Z,15.10
2022-11-28T06:21:21.814Z,14.15
2022-11-28T06:23:48.566Z,14.68
2022-11-28T06:26:18.649Z,15.13
2022-11-28T06:28:45.903Z,15.25
2022-11-28T06:31:15.059Z,15.52
2022-11-28T06:33:42.217Z,14.18
2022-11-28T06:36:10.689Z,13.82
2022-11-28T06:38:37.403Z,14.55
2022-11-28T06:41:07.052Z,14.07
2022-11-28T06:43:34.073Z,14.13
2022-11-28T06:46:00.912Z,14.07
2022-11-28T06:48:28.026Z,14.57
2022-11-28T06:51:01.260Z,14.48
2022-11-28T06:53:31.421Z,14.85
2022-11-28T06:56:03.588Z,14.88
2022-11-28T06:58:30.214Z,14.90
2022-11-28T07:00:56.917Z,14.85
2022-11-28T07:03:23.579Z,14.75
2022-11-28T07:05:50.204Z,14.10
2022-11-28T07:08:17.167Z,14.30
2022-11-28T07:10:43.849Z,13.90
2022-11-28T07:13:10.476Z,15.85
2022-11-28T07:15:37.112Z,14.95
2022-11-28T07:18:04.523Z,14.70
2022-11-28T07:20:31.141Z,14.60
2022-11-28T07:22:57.812Z,15.45
2022-11-28T07:25:24.442Z,14.02
2022-11-28T07:27:51.086Z,13.88
2022-11-28T07:30:17.753Z,14.95
2022-11-28T07:32:44.426Z,14.50
2022-11-28T07:35:12.163Z,14.07
2022-11-28T07:37:38.816Z,15.70
2022-11-28T07:40:06.560Z,14.60
2022-11-28T07:42:33.425Z,13.55
2022-11-28T07:45:00.054Z,13.80
2022-11-28T07:47:26.708Z,13.50
2022-11-28T07:49:54.223Z,14.35
2022-11-28T07:52:20.895Z,13.13
2022-11-28T07:54:49.731Z,13.80
2022-11-28T07:57:16.582Z,14.07
2022-11-28T07:59:43.800Z,14.65
2022-11-28T08:02:12.012Z,14.65
2022-11-28T08:04:44.006Z,14.30
2022-11-28T08:07:14.722Z,13.40
2022-11-28T08:09:41.772Z,13.98
2022-11-28T08:12:08.708Z,12.73
2022-11-28T08:14:35.338Z,12.90
2022-11-28T08:17:02.003Z,11.68
2022-11-28T08:19:33.673Z,12.27
2022-11-28T08:22:01.936Z,12.02
2022-11-28T08:24:28.571Z,12.40
2022-11-28T08:26:55.193Z,12.13
2022-11-28T08:29:21.815Z,13.07
2022-11-28T08:31:48.526Z,12.85
2022-11-28T08:34:15.332Z,11.45
2022-11-28T08:36:43.335Z,12.95
2022-11-28T08:39:26.488Z,12.15
2022-11-28T08:41:57.203Z,12.05
2022-11-28T08:44:24.341Z,11.48
2022-11-28T08:46:51.131Z,10.40
2022-11-28T08:49:17.862Z,10.73
2022-11-28T08:51:44.537Z,10.77
2022-11-28T08:54:11.396Z,12.57
2022-11-28T08:56:38.072Z,11.40
2022-11-28T08:59:04.852Z,11.13
2022-11-28T09:01:32.101Z,12.68
2022-11-28T09:03:58.941Z,11.90
2022-11-28T09:06:25.661Z,11.90
2022-11-28T09:08:53.878Z,11.52
2022-11-28T09:11:22.213Z,12.05
2022-11-28T09:13:49.632Z,12.57
2022-11-28T09:16:16.602Z,11.82
2022-11-28T09:18:43.605Z,11.93
2022-11-28T09:21:13.332Z,11.52
2022-11-28T09:23:42.571Z,13.10
2022-11-28T09:26:17.387Z,10.57
2022-11-28T09:28:56.170Z,11.40
2022-11-28T09:31:23.424Z,12.82
2022-11-28T09:33:50.499Z,12.13
2022-11-28T09:36:20.396Z,11.95
2022-11-28T09:38:47.173Z,10.88
2022-11-28T09:41:28.425Z,11.70
2022-11-28T09:44:25.640Z,13.35
2022-11-28T09:46:57.950Z,14.00
2022-11-28T09:49:41.401Z,12.38
2022-11-28T09:52:32.744Z,11.32
2022-11-28T09:55:14.051Z,10.25
2022-11-28T09:57:47.425Z,10.10
2022-11-28T10:00:21.883Z,11.27
2022-11-28T10:03:25.644Z,9.95
2022-11-28T10:06:12.864Z,9.30
2022-11-28T10:09:01.043Z,9.27
2022-11-28T12:05:23.596Z,8.03
2022-11-28T12:07:59.633Z,8.93
2022-11-28T12:10:29.546Z,9.10
2022-11-28T12:12:56.451Z,7.97
2022-11-28T12:15:35.842Z,8.43
2022-11-28T12:18:26.718Z,7.90
2022-11-28T12:21:16.455Z,7.60
2022-11-28T12:23:52.334Z,7.50
2022-11-28T12:26:49.933Z,7.90
2022-11-28T12:29:28.296Z,7.73
2022-11-28T12:32:03.778Z,7.67
2022-11-28T12:34:36.933Z,6.50
2022-11-28T12:37:19.645Z,6.33
2022-11-28T12:40:10.680Z,7.20
2022-11-28T12:42:52.602Z,7.10
2022-11-28T12:45:46.422Z,6.40
2022-11-28T12:49:00.426Z,5.90
2022-11-28T12:52:04.397Z,6.53
2022-11-28T12:54:34.078Z,7.33
2022-11-28T12:57:42.804Z,7.30
2022-11-28T13:00:20.971Z,8.00
2022-11-28T13:03:10.051Z,6.40
2022-11-28T13:06:07.448Z,6.30
2022-11-28T13:09:01.410Z,6.57
2022-11-28T13:11:47.027Z,6.73
2022-11-28T13:14:42.299Z,6.20
2022-11-28T13:17:29.177Z,7.20
2022-11-28T13:20:19.618Z,6.30
2022-11-28T13:23:07.009Z,6.53
2022-11-28T13:25:48.408Z,6.13
2022-11-28T13:28:44.711Z,6.47
2022-11-28T13:31:17.619Z,6.40
2022-11-28T13:33:50.141Z,6.00
2022-11-28T13:40:00.177Z,6.20
2022-11-28T13:42:59.655Z,6.53
2022-11-28T13:45:32.311Z,5.40
2022-11-28T13:48:00.651Z,6.20
2022-11-28T13:50:33.310Z,6.10
2022-11-28T13:53:12.570Z,6.40
2022-11-28T13:55:46.776Z,6.40
2022-11-28T13:58:34.585Z,6.10
2022-11-28T14:01:14.271Z,6.10
2022-11-28T14:03:58.711Z,4.97
2022-11-28T14:06:47.721Z,5.60
2022-11-28T14:09:14.323Z,5.13
2022-11-28T14:12:08.648Z,4.97
2022-11-28T14:15:07.244Z,4.97
2022-11-28T14:17:33.900Z,4.63
2022-11-28T14:20:18.311Z,4.63
2022-11-28T14:23:00.902Z,5.10
2022-11-28T14:25:31.589Z,5.20
2022-11-28T14:28:05.723Z,4.93
2022-11-28T14:30:37.663Z,5.20
2022-11-28T14:33:15.677Z,5.30
2022-11-28T14:35:54.252Z,4.73
2022-11-28T14:38:30.146Z,4.40
2022-11-28T14:40:59.812Z,4.73
2022-11-28T14:43:47.025Z,4.97
2022-11-28T14:46:19.658Z,4.70
2022-11-28T14:48:58.585Z,4.20
2022-11-28T14:51:44.282Z,4.70
2022-11-28T14:54:28.736Z,5.30
2022-11-28T14:56:59.823Z,5.50
2022-11-28T14:59:40.370Z,5.60
2022-11-28T15:02:13.213Z,5.60
2022-11-28T15:04:51.903Z,7.17
2022-11-28T15:07:40.543Z,7.10
2022-11-28T15:10:17.981Z,7.93
2022-11-28T15:13:07.392Z,7.73
2022-11-28T15:15:34.359Z,8.50
2022-11-28T15:18:04.671Z,8.00
2022-11-28T15:20:42.438Z,8.27
2022-11-28T15:23:33.498Z,8.10
2022-11-28T15:26:01.961Z,8.07
2022-11-28T15:28:32.157Z,8.90
2022-11-28T15:31:01.693Z,8.50
2022-11-28T15:33:29.521Z,8.63
2022-11-28T15:36:16.877Z,7.70
2022-11-28T15:38:43.890Z,8.17
2022-11-28T15:41:10.878Z,7.90
2022-11-28T15:43:42.230Z,8.97
2022-11-28T15:46:19.736Z,8.50
2022-11-28T15:48:52.231Z,9.20
2022-11-28T15:51:33.905Z,8.27
2022-11-28T15:54:03.311Z,9.60
2022-11-28T15:56:29.995Z,9.30
2022-11-28T15:58:56.738Z,8.47
2022-11-28T16:01:27.145Z,8.10
2022-11-28T16:04:04.803Z,8.13
2022-11-28T16:06:35.331Z,8.70
2022-11-28T16:09:05.050Z,9.17
2022-11-28T16:11:34.165Z,9.27
2022-11-28T16:14:08.607Z,8.40
2022-11-28T16:16:37.411Z,9.07
2022-11-28T16:19:08.207Z,8.70
2022-11-28T16:21:43.034Z,9.60
2022-11-28T16:24:36.892Z,8.30
2022-11-28T16:27:06.062Z,8.30
2022-11-28T16:29:35.540Z,11.87
2022-11-28T16:32:21.784Z,10.90
2022-11-28T16:34:52.973Z,11.77
2022-11-28T16:37:29.424Z,11.60
2022-11-28T16:40:21.214Z,12.30
2022-11-28T16:42:55.758Z,11.03
2022-11-28T16:45:27.427Z,9.90
2022-11-28T16:48:13.546Z,10.33
2022-11-28T16:51:01.355Z,14.17
2022-11-28T16:53:51.760Z,19.93
2022-11-28T16:56:30.441Z,17.20
2022-11-28T16:59:14.794Z,14.43
2022-11-28T17:01:44.003Z,12.80
2022-11-28T17:04:23.278Z,11.47
2022-11-28T17:06:51.433Z,12.70
2022-11-28T17:09:18.845Z,12.63
2022-11-28T17:11:54.395Z,12.33
2022-11-28T17:14:21.050Z,13.40
2022-11-28T17:16:47.793Z,20.53
2022-11-28T17:19:14.657Z,46.00
2022-11-28T17:21:51.033Z,19.13
2022-11-28T17:24:23.717Z,14.33
2022-11-28T17:26:51.902Z,13.67
2022-11-28T17:29:19.186Z,13.90
2022-11-28T17:31:47.242Z,11.73
2022-11-28T17:34:23.152Z,12.97
2022-11-28T17:36:50.543Z,15.80
2022-11-28T17:39:18.322Z,11.80
2022-11-28T17:41:46.911Z,11.30
2022-11-28T17:44:18.376Z,11.00
2022-11-28T17:46:45.534Z,11.20
2022-11-28T17:49:12.460Z,11.97
2022-11-28T17:51:39.248Z,11.20
2022-11-28T17:54:06.347Z,14.70
2022-11-28T17:56:33.273Z,15.97
2022-11-28T17:59:00.712Z,14.40
2022-11-28T18:01:30.080Z,14.80
2022-11-28T18:03:57.554Z,21.05
2022-11-28T18:06:24.901Z,18.93
2022-11-28T18:08:52.229Z,15.95
2022-11-28T18:11:20.135Z,16.38
2022-11-28T18:13:47.139Z,15.33
2022-11-28T18:16:16.063Z,15.00
2022-11-28T18:18:42.743Z,14.10
2022-11-28T18:21:10.866Z,14.70
2022-11-28T18:23:42.316Z,13.77
2022-11-28T18:26:11.245Z,14.60
2022-11-28T18:28:38.289Z,22.85
2022-11-28T18:31:16.751Z,19.52
2022-11-28T18:33:43.752Z,24.40
2022-11-28T18:36:16.014Z,18.10
2022-11-28T18:38:45.134Z,14.30
2022-11-28T18:41:13.656Z,13.10
2022-11-28T18:43:40.742Z,11.77
2022-11-28T18:46:20.761Z,10.50
2022-11-28T18:48:48.062Z,10.63
2022-11-28T18:51:20.932Z,9.50
2022-11-28T18:53:49.263Z,10.90
2022-11-28T18:56:16.521Z,9.20
2022-11-28T18:58:46.141Z,9.60
2022-11-28T19:01:15.592Z,8.10
2022-11-28T19:03:43.731Z,10.50
2022-11-28T19:06:12.014Z,9.48
2022-11-28T19:08:39.839Z,10.03
2022-11-28T19:11:09.667Z,9.10
2022-11-28T19:13:37.228Z,8.73
2022-11-28T19:16:14.545Z,9.00
2022-11-28T19:18:41.283Z,8.40
2022-11-28T19:21:09.707Z,10.35
2022-11-28T19:23:36.981Z,12.60
2022-11-28T19:26:06.638Z,9.90
2022-11-28T19:28:34.851Z,10.20
2022-11-28T19:31:15.344Z,9.20
2022-11-28T19:33:43.446Z,12.00
2022-11-28T19:36:12.746Z,15.90
2022-11-28T19:38:40.205Z,16.10
2022-11-28T19:41:07.376Z,14.47
2022-11-28T19:43:35.199Z,10.90
2022-11-28T19:46:02.132Z,10.40
2022-11-28T19:48:30.864Z,9.60
2022-11-28T19:50:57.755Z,9.50
2022-11-28T19:53:24.732Z,9.40
2022-11-28T19:55:51.853Z,9.30
2022-11-28T19:58:18.956Z,9.32
2022-11-28T20:00:45.994Z,9.40
2022-11-28T20:03:12.664Z,8.50
2022-11-28T20:05:41.301Z,10.20
2022-11-28T20:08:08.639Z,10.50
2022-11-28T20:10:36.746Z,13.90
2022-11-28T20:13:03.639Z,10.53
2022-11-28T20:15:30.268Z,10.43
2022-11-28T20:17:56.930Z,10.53
2022-11-28T20:20:23.649Z,15.93
2022-11-28T20:22:50.279Z,13.37
2022-11-28T20:25:20.849Z,13.93
2022-11-28T20:27:47.815Z,21.63
2022-11-28T20:30:15.031Z,27.47
2022-11-28T20:32:41.740Z,25.80
2022-11-28T20:35:09.610Z,19.10
2022-11-28T20:37:37.523Z,18.70
2022-11-28T20:40:04.654Z,20.10
2022-11-28T20:42:39.477Z,13.53
2022-11-28T20:45:07.205Z,11.23
2022-11-28T20:47:34.860Z,12.07
2022-11-28T20:50:01.657Z,10.87
2022-11-28T20:52:28.303Z,10.33
2022-11-28T20:54:54.987Z,9.53
2022-11-28T20:57:22.565Z,9.50
2022-11-28T20:59:49.511Z,11.17
2022-11-28T21:02:16.508Z,8.90
2022-11-28T21:04:43.160Z,9.40
2022-11-28T21:07:09.861Z,10.10
2022-11-28T21:09:36.531Z,9.53
2022-11-28T21:12:03.462Z,9.40
2022-11-28T21:14:30.132Z,9.07
2022-11-28T21:16:58.156Z,10.37
2022-11-28T21:19:24.960Z,13.67
2022-11-28T21:21:51.614Z,20.60
2022-11-28T21:24:18.489Z,12.90
2022-11-28T21:26:51.251Z,15.40
2022-11-28T21:29:20.871Z,16.10
2022-11-28T21:31:48.847Z,11.23
2022-11-28T21:34:16.635Z,10.27
2022-11-28T21:36:43.983Z,10.87
2022-11-28T21:39:13.599Z,10.40
2022-11-28T21:41:40.642Z,10.27
2022-11-28T21:44:07.402Z,10.30
2022-11-28T21:46:34.068Z,12.80
2022-11-28T21:49:00.886Z,11.20
2022-11-28T21:51:28.624Z,10.33
2022-11-28T21:53:57.288Z,10.27
2022-11-28T21:56:24.183Z,11.20
2022-11-28T21:58:50.859Z,9.20
2022-11-28T22:01:18.031Z,10.57
2022-11-28T22:03:44.839Z,9.20
2022-11-28T22:06:17.847Z,10.60
2022-11-28T22:08:45.178Z,10.40
2022-11-28T22:11:13.315Z,10.47
2022-11-28T22:13:42.270Z,10.83
2022-11-28T22:16:16.936Z,11.43
2022-11-28T22:18:44.277Z,11.07
2022-11-28T22:21:49.395Z,11.60
2022-11-28T22:23:57.764Z,11.33
2022-11-28T22:26:24.509Z,12.80
2022-11-28T22:28:53.767Z,13.20
2022-11-28T22:31:20.967Z,13.67
2022-11-28T22:33:49.213Z,13.60
2022-11-28T22:36:18.562Z,13.45
2022-11-28T22:38:46.857Z,13.17
2022-11-28T22:41:19.809Z,11.80
2022-11-28T22:43:53.786Z,13.13
2022-11-28T22:46:20.666Z,12.37
2022-11-28T22:48:47.408Z,11.60
2022-11-28T22:51:19.158Z,11.63
2022-11-28T22:53:45.851Z,11.27
2022-11-28T22:56:14.672Z,12.15
2022-11-28T22:58:45.554Z,11.20
2022-11-28T23:01:20.985Z,11.03
2022-11-28T23:03:48.381Z,11.80
2022-11-28T23:06:21.132Z,11.73
2022-11-28T23:08:48.162Z,11.93
2022-11-28T23:11:18.414Z,12.47
2022-11-28T23:13:47.929Z,12.13
2022-11-28T23:16:34.010Z,12.97
2022-11-28T23:19:03.439Z,11.27
2022-11-28T23:21:33.844Z,11.87
2022-11-28T23:24:00.597Z,11.77
2022-11-28T23:26:29.914Z,11.95
2022-11-28T23:29:00.051Z,10.30
2022-11-28T23:31:29.765Z,10.97
2022-11-28T23:33:57.862Z,11.23
2022-11-28T23:36:27.613Z,13.77
2022-11-28T23:38:56.758Z,11.80
2022-11-28T23:41:24.394Z,13.10
2022-11-28T23:43:51.391Z,12.40
2022-11-28T23:46:19.176Z,13.10
2022-11-28T23:48:46.932Z,12.33
2022-11-28T23:51:19.532Z,13.67
2022-11-28T23:53:46.607Z,13.33
2022-11-28T23:56:17.816Z,12.90
2022-11-28T23:58:45.224Z,13.37
